Time;durP1;ratioP1;P1;durP2;ratioP2;P2;SDS_P1;SDS_P2;PMS_P1;PMS_P2;Temp;Humidity;BMP_temperature;BMP_pressure;BME280_temperature;BME280_humidity;BME280_pressure;Samples;Min_cycle;Max_cycle;Signal;HPM_P1;HPM_P2
2021/08/06 00:00:10;;;;;;;;;;;;;;;22.77;46.89;100728.38;5103453;28;19928;-60
2021/08/06 00:02:38;;;;;;;;;;;;;;;22.77;46.87;100725.69;5098363;28;20301;-60
2021/08/06 00:05:06;;;;;;;;;;;;;;;22.77;46.64;100725.69;5107188;28;20050;-60
2021/08/06 00:07:35;;;;;;;;;;;;;;;22.77;46.84;100723.00;5104801;28;19928;-60
2021/08/06 00:10:03;;;;;;;;;;;;;;;22.78;46.69;100727.38;5102971;28;19932;-60
2021/08/06 00:12:31;;;;;;;;;;;;;;;22.79;46.62;100725.56;5101472;28;19962;-60
2021/08/06 00:14:59;;;;;;;;;;;;;;;22.79;46.91;100736.34;5106067;28;19927;-60
2021/08/06 00:17:29;;;;;;;;;;;;;;;22.80;46.91;100732.63;5101898;28;19924;-60
2021/08/06 00:19:57;;;;;;;;;;;;;;;22.79;46.93;100730.94;5104971;28;19940;-60
2021/08/06 00:22:24;;;;;;;;;;;;;;;22.79;46.71;100731.78;5101457;28;19932;-59
2021/08/06 00:24:54;;;;;;;;;;;;;;;22.79;46.67;100731.78;5102269;28;19927;-60
2021/08/06 00:27:22;;;;;;;;;;;;;;;22.79;46.83;100726.41;5103450;28;20456;-59
2021/08/06 00:29:50;;;;;;;;;;;;;;;22.78;46.78;100724.69;5101638;28;19977;-59
2021/08/06 00:32:18;;;;;;;;;;;;;;;22.80;46.77;100724.53;5105789;28;19940;-59
2021/08/06 00:34:47;;;;;;;;;;;;;;;22.78;46.71;100727.38;5104993;28;19932;-59
2021/08/06 00:37:15;;;;;;;;;;;;;;;22.78;46.42;100715.75;5102697;28;20589;-59
2021/08/06 00:39:47;;;;;;;;;;;;;;;22.79;46.54;100721.00;5106018;28;19994;-60
2021/08/06 00:42:15;;;;;;;;;;;;;;;22.80;46.52;100729.94;5114568;28;20005;-60
2021/08/06 00:44:45;;;;;;;;;;;;;;;22.79;46.65;100726.41;5096599;28;19924;-59
2021/08/06 00:47:14;;;;;;;;;;;;;;;22.79;46.83;100729.09;5104042;28;20352;-60
2021/08/06 00:49:42;;;;;;;;;;;;;;;22.79;46.76;100729.09;5105509;28;19946;-60
2021/08/06 00:52:15;;;;;;;;;;;;;;;22.79;46.71;100729.09;5112507;28;19935;-59
2021/08/06 00:54:47;;;;;;;;;;;;;;;22.81;46.54;100726.28;5107278;28;20038;-59
2021/08/06 00:57:17;;;;;;;;;;;;;;;22.80;46.71;100717.34;5106787;28;19924;-60
2021/08/06 00:59:54;;;;;;;;;;;;;;;22.80;46.75;100717.34;5106811;28;20015;-60
2021/08/06 01:02:26;;;;;;;;;;;;;;;22.79;46.80;100718.31;5104850;28;19923;-60
2021/08/06 01:05:01;;;;;;;;;;;;;;;22.81;46.71;100731.66;5121157;28;19928;-59
2021/08/06 01:07:39;;;;;;;;;;;;;;;22.81;46.54;100718.19;5109760;28;19936;-59
2021/08/06 01:10:08;;;;;;;;;;;;;;;22.80;46.69;100716.47;5108145;28;19928;-60
2021/08/06 01:12:51;;;;;;;;;;;;;;;22.81;46.83;100721.75;5102493;28;20005;-59
2021/08/06 01:15:20;;;;;;;;;;;;;;;22.81;46.81;100716.38;5120416;27;19973;-60
2021/08/06 01:17:50;;;;;;;;;;;;;;;22.80;46.82;100720.03;5106184;28;19959;-60
2021/08/06 01:20:24;;;;;;;;;;;;;;;22.79;46.61;100718.31;5104592;28;19949;-60
2021/08/06 01:23:00;;;;;;;;;;;;;;;22.80;46.64;100717.34;5121041;27;20363;-61
2021/08/06 01:25:56;;;;;;;;;;;;;;;22.81;46.86;100726.28;5105396;28;19924;-59
2021/08/06 01:28:36;;;;;;;;;;;;;;;22.81;46.81;100729.84;5107764;27;19931;-60
2021/08/06 01:31:06;;;;;;;;;;;;;;;22.81;46.93;100724.47;5106761;27;19932;-60
2021/08/06 01:33:40;;;;;;;;;;;;;;;22.81;46.78;100721.75;5107764;27;19967;-59
2021/08/06 01:36:10;;;;;;;;;;;;;;;22.81;46.82;100719.06;5109500;28;19954;-60
2021/08/06 01:38:38;;;;;;;;;;;;;;;22.81;46.69;100716.38;5105732;27;19927;-59
2021/08/06 01:41:16;;;;;;;;;;;;;;;22.81;46.85;100716.38;5103490;28;19963;-60
2021/08/06 01:43:55;;;;;;;;;;;;;;;22.82;46.89;100703.72;5110645;28;19924;-58
2021/08/06 01:46:26;;;;;;;;;;;;;;;22.81;46.88;100702.00;5108139;27;20151;-58
2021/08/06 01:48:59;;;;;;;;;;;;;;;22.81;46.81;100704.69;5141148;27;19924;-59
2021/08/06 01:51:31;;;;;;;;;;;;;;;22.81;47.01;100686.69;5106598;28;19924;-60
2021/08/06 01:54:00;;;;;;;;;;;;;;;22.83;47.01;100694.66;5136251;27;19938;-59
2021/08/06 01:56:31;;;;;;;;;;;;;;;22.83;47.05;100694.66;5101939;28;19934;-59
2021/08/06 01:59:00;;;;;;;;;;;;;;;22.82;46.77;100687.53;5136344;27;19935;-60
2021/08/06 02:01:40;;;;;;;;;;;;;;;22.82;46.83;100682.16;5108085;27;19931;-59
2021/08/06 02:04:15;;;;;;;;;;;;;;;22.83;46.97;100687.41;5103516;27;19988;-59
2021/08/06 02:06:51;;;;;;;;;;;;;;;22.86;47.12;100680.91;5103849;27;19953;-59
2021/08/06 02:09:24;;;;;;;;;;;;;;;22.86;47.64;100681.81;5101794;28;20049;-59
2021/08/06 02:11:55;;;;;;;;;;;;;;;22.86;48.41;100672.84;5130576;27;19932;-59
2021/08/06 02:14:39;;;;;;;;;;;;;;;22.87;48.50;100675.41;5105362;27;19961;-59
2021/08/06 02:17:08;;;;;;;;;;;;;;;22.87;47.96;100677.25;5104383;27;19932;-59
2021/08/06 02:19:41;;;;;;;;;;;;;;;22.87;47.49;100675.41;5107319;27;20300;-59
2021/08/06 02:22:13;;;;;;;;;;;;;;;22.87;48.21;100677.25;5137095;27;19995;-59
2021/08/06 02:24:45;;;;;;;;;;;;;;;22.87;48.76;100674.56;5111673;27;21132;-59
2021/08/06 02:27:19;;;;;;;;;;;;;;;22.87;48.57;100672.69;5106597;27;19932;-59
2021/08/06 02:29:48;;;;;;;;;;;;;;;22.87;48.60;100675.41;5112807;28;19927;-59
2021/08/06 02:32:23;;;;;;;;;;;;;;;22.85;48.79;100666.59;5100453;28;19973;-59
2021/08/06 02:34:51;;;;;;;;;;;;;;;22.87;48.69;100666.47;5115965;27;20030;-58
2021/08/06 02:37:19;;;;;;;;;;;;;;;22.87;48.50;100663.78;5135219;27;19939;-58
2021/08/06 02:39:47;;;;;;;;;;;;;;;22.86;48.48;100659.34;5109493;27;19966;-59
2021/08/06 02:42:15;;;;;;;;;;;;;;;22.86;48.37;100660.22;5103792;28;19939;-59
2021/08/06 02:44:45;;;;;;;;;;;;;;;22.85;48.14;100653.09;5106355;28;20279;-59
2021/08/06 02:47:13;;;;;;;;;;;;;;;22.85;48.25;100649.53;5104100;28;19924;-59
2021/08/06 02:49:41;;;;;;;;;;;;;;;22.85;48.31;100654.94;5106687;28;19927;-59
2021/08/06 02:52:09;;;;;;;;;;;;;;;22.84;48.55;100653.25;5109366;28;20031;-59
2021/08/06 02:54:38;;;;;;;;;;;;;;;22.83;48.73;100652.38;5108539;28;19981;-59
2021/08/06 02:57:06;;;;;;;;;;;;;;;22.84;48.66;100650.53;5109903;28;19932;-59
2021/08/06 02:59:34;;;;;;;;;;;;;;;22.83;48.47;100651.50;5105542;28;20680;-60
2021/08/06 03:02:04;;;;;;;;;;;;;;;22.83;48.55;100640.72;5103946;27;20773;-60
2021/08/06 03:04:33;;;;;;;;;;;;;;;22.82;48.55;100634.47;5109797;28;20423;-60
2021/08/06 03:07:07;;;;;;;;;;;;;;;22.83;48.55;100629.94;5105567;28;19955;-59
2021/08/06 03:09:36;;;;;;;;;;;;;;;22.83;48.36;100633.50;5132077;27;19936;-58
2021/08/06 03:12:04;;;;;;;;;;;;;;;22.82;48.46;100625.53;5104146;28;19959;-59
2021/08/06 03:14:36;;;;;;;;;;;;;;;22.82;48.55;100620.97;5111265;28;19999;-59
2021/08/06 03:17:06;;;;;;;;;;;;;;;22.81;48.51;100632.78;5105949;28;20079;-57
2021/08/06 03:19:37;;;;;;;;;;;;;;;22.82;48.41;100626.38;5111416;28;19928;-59
2021/08/06 03:22:06;;;;;;;;;;;;;;;22.83;48.19;100627.25;5113408;28;20026;-59
2021/08/06 03:24:34;;;;;;;;;;;;;;;22.83;48.38;100621.84;5105850;28;19928;-59
2021/08/06 03:27:03;;;;;;;;;;;;;;;22.83;48.56;100619.16;5104046;27;20000;-59
2021/08/06 03:29:31;;;;;;;;;;;;;;;22.82;48.55;100618.28;5104779;28;19924;-59
2021/08/06 03:31:59;;;;;;;;;;;;;;;22.81;48.38;100624.69;5100610;28;19931;-59
2021/08/06 03:34:29;;;;;;;;;;;;;;;22.82;48.40;100620.13;5102975;28;19923;-59
2021/08/06 03:36:57;;;;;;;;;;;;;;;22.81;48.33;100613.03;5100087;28;20137;-59
2021/08/06 03:39:26;;;;;;;;;;;;;;;22.82;48.32;100622.81;5109709;28;19932;-59
2021/08/06 03:41:54;;;;;;;;;;;;;;;22.82;48.31;100620.13;5108494;28;19938;-59
2021/08/06 03:44:22;;;;;;;;;;;;;;;22.81;48.36;100623.81;5117911;27;20008;-59
2021/08/06 03:46:50;;;;;;;;;;;;;;;22.80;48.53;100620.25;5104135;28;19936;-59
2021/08/06 03:49:19;;;;;;;;;;;;;;;22.80;48.45;100619.38;5106958;28;19931;-59
2021/08/06 03:51:49;;;;;;;;;;;;;;;22.80;48.19;100620.25;5104100;28;19932;-59
2021/08/06 03:54:17;;;;;;;;;;;;;;;22.81;47.98;100619.28;5105345;28;19932;-59
2021/08/06 03:56:46;;;;;;;;;;;;;;;22.80;48.17;100614.88;5103868;28;19978;-59
2021/08/06 03:59:14;;;;;;;;;;;;;;;22.80;48.26;100627.47;5102819;28;19950;-59
2021/08/06 04:01:42;;;;;;;;;;;;;;;22.79;48.35;100623.94;5108218;28;19923;-60
2021/08/06 04:04:11;;;;;;;;;;;;;;;22.79;48.18;100613.16;5118085;27;19932;-59
2021/08/06 04:06:40;;;;;;;;;;;;;;;22.79;48.29;100629.31;5118845;27;19946;-59
2021/08/06 04:09:10;;;;;;;;;;;;;;;22.80;48.22;100630.19;5101794;28;19939;-59
2021/08/06 04:11:38;;;;;;;;;;;;;;;22.79;48.19;100626.63;5104117;28;19991;-59
2021/08/06 04:14:06;;;;;;;;;;;;;;;22.80;48.06;100632.88;5105100;28;19948;-61
2021/08/06 04:16:34;;;;;;;;;;;;;;;22.80;47.99;100627.47;5106121;28;20381;-60
2021/08/06 04:19:02;;;;;;;;;;;;;;;22.80;48.13;100627.47;5107895;28;20026;-59
2021/08/06 04:21:31;;;;;;;;;;;;;;;22.79;48.34;100634.72;5100432;28;19932;-59
2021/08/06 04:23:59;;;;;;;;;;;;;;;22.79;48.17;100628.47;5102725;28;19934;-59
2021/08/06 04:26:29;;;;;;;;;;;;;;;22.79;47.97;100623.09;5119052;27;19938;-59
2021/08/06 04:28:58;;;;;;;;;;;;;;;22.79;47.86;100626.63;5137872;27;20091;-59
2021/08/06 04:31:26;;;;;;;;;;;;;;;22.79;48.07;100618.53;5103962;28;19935;-59
2021/08/06 04:33:54;;;;;;;;;;;;;;;22.79;48.16;100623.94;5099934;28;19924;-59
2021/08/06 04:36:22;;;;;;;;;;;;;;;22.79;47.97;100621.25;5117123;27;19957;-59
2021/08/06 04:38:52;;;;;;;;;;;;;;;22.79;47.71;100623.94;5100862;28;20435;-60
2021/08/06 04:41:20;;;;;;;;;;;;;;;22.80;47.72;100624.78;5138108;27;19962;-60
2021/08/06 04:43:50;;;;;;;;;;;;;;;22.79;47.82;100615.84;5108685;28;20067;-59
2021/08/06 04:46:21;;;;;;;;;;;;;;;22.79;47.97;100625.78;5098734;28;19931;-59
2021/08/06 04:48:49;;;;;;;;;;;;;;;22.79;47.93;100618.53;5103767;28;19935;-60
2021/08/06 04:51:17;;;;;;;;;;;;;;;22.79;47.86;100613.16;5107289;27;19985;-60
2021/08/06 04:53:46;;;;;;;;;;;;;;;22.80;47.77;100614.00;5112042;28;19939;-59
2021/08/06 04:56:14;;;;;;;;;;;;;;;22.79;48.07;100617.69;5105318;28;20027;-59
2021/08/06 04:58:42;;;;;;;;;;;;;;;22.78;48.00;100607.88;5108685;28;20350;-59
2021/08/06 05:01:12;;;;;;;;;;;;;;;22.80;48.01;100605.91;5141767;27;19927;-60
2021/08/06 05:03:40;;;;;;;;;;;;;;;22.79;47.88;100605.06;5104930;28;20468;-59
2021/08/06 05:06:10;;;;;;;;;;;;;;;22.79;48.00;100604.22;5107902;27;19928;-59
2021/08/06 05:08:39;;;;;;;;;;;;;;;22.78;48.15;100597.94;5106171;28;20000;-59
2021/08/06 05:11:07;;;;;;;;;;;;;;;22.78;48.08;100595.25;5111807;28;20030;-59
2021/08/06 05:13:35;;;;;;;;;;;;;;;22.79;47.87;100596.13;5106139;28;19931;-59
2021/08/06 05:16:03;;;;;;;;;;;;;;;22.79;47.76;100588.03;5111573;28;19947;-59
2021/08/06 05:18:34;;;;;;;;;;;;;;;22.80;47.91;100595.13;5111706;28;19955;-59
2021/08/06 05:21:03;;;;;;;;;;;;;;;22.79;48.00;100588.03;5138155;27;19934;-59
2021/08/06 05:23:31;;;;;;;;;;;;;;;22.79;48.09;100591.56;5112387;27;19928;-59
2021/08/06 05:26:00;;;;;;;;;;;;;;;22.80;48.04;100577.13;5112978;28;20438;-59
2021/08/06 05:28:28;;;;;;;;;;;;;;;22.81;48.04;100580.66;5108691;28;19930;-59
2021/08/06 05:30:56;;;;;;;;;;;;;;;22.83;47.92;100586.78;5106624;28;19924;-59
2021/08/06 05:33:24;;;;;;;;;;;;;;;22.85;47.73;100587.50;5112900;27;20167;-60
2021/08/06 05:35:53;;;;;;;;;;;;;;;22.87;47.91;100577.47;5105548;27;19954;-60
2021/08/06 05:38:22;;;;;;;;;;;;;;;22.87;47.97;100580.16;5121691;27;19961;-59
2021/08/06 05:40:50;;;;;;;;;;;;;;;22.85;47.93;100580.31;5110890;27;19923;-59
2021/08/06 05:43:20;;;;;;;;;;;;;;;22.88;47.64;100582.72;5108249;27;20474;-59
2021/08/06 05:45:49;;;;;;;;;;;;;;;22.88;47.99;100581.88;5113013;27;19996;-60
2021/08/06 05:48:18;;;;;;;;;;;;;;;22.88;47.84;100580.03;5106963;27;19928;-60
2021/08/06 05:50:48;;;;;;;;;;;;;;;22.88;47.60;100588.13;5107619;27;19965;-60
2021/08/06 05:53:23;;;;;;;;;;;;;;;22.90;47.77;100588.00;5111340;27;20501;-60
2021/08/06 05:55:58;;;;;;;;;;;;;;;22.90;48.02;100585.31;5107445;27;19967;-60
2021/08/06 05:58:32;;;;;;;;;;;;;;;22.91;48.25;100576.22;5108638;27;19924;-60
2021/08/06 06:01:02;;;;;;;;;;;;;;;22.91;48.12;100578.94;5103477;27;19935;-60
2021/08/06 06:03:38;;;;;;;;;;;;;;;22.91;48.18;100575.38;5122471;27;19932;-60
2021/08/06 06:06:16;;;;;;;;;;;;;;;22.93;48.33;100578.78;5110678;27;19928;-59
2021/08/06 06:08:45;;;;;;;;;;;;;;;22.93;48.30;100584.19;5101806;28;19935;-59
2021/08/06 06:11:13;;;;;;;;;;;;;;;22.94;48.53;100589.44;5102773;27;19957;-59
2021/08/06 06:13:42;;;;;;;;;;;;;;;22.93;48.35;100585.06;5111073;27;19962;-59
2021/08/06 06:16:10;;;;;;;;;;;;;;;22.92;48.27;100577.94;5105813;27;19931;-58
2021/08/06 06:18:38;;;;;;;;;;;;;;;22.94;48.52;100577.81;5109770;27;19939;-59
2021/08/06 06:21:07;;;;;;;;;;;;;;;22.93;48.15;100579.66;5106300;27;19931;-59
2021/08/06 06:23:36;;;;;;;;;;;;;;;22.94;48.38;100575.13;5107334;27;19927;-59
2021/08/06 06:26:08;;;;;;;;;;;;;;;22.94;48.23;100581.34;5101650;27;20350;-59
2021/08/06 06:28:36;;;;;;;;;;;;;;;22.94;48.65;100577.81;5146062;27;20019;-59
2021/08/06 06:31:05;;;;;;;;;;;;;;;22.95;48.30;100582.25;5110245;27;19934;-59
2021/08/06 06:33:36;;;;;;;;;;;;;;;22.94;48.30;100581.34;5110297;27;19935;-60
2021/08/06 06:36:04;;;;;;;;;;;;;;;22.94;48.23;100580.53;5107541;27;19950;-59
2021/08/06 06:38:32;;;;;;;;;;;;;;;22.95;48.32;100572.28;5110064;27;19937;-59
2021/08/06 06:41:03;;;;;;;;;;;;;;;22.99;48.48;100578.31;5116211;28;20023;-60
2021/08/06 06:43:35;;;;;;;;;;;;;;;23.00;48.67;100578.16;5110079;28;19928;-60
2021/08/06 06:46:03;;;;;;;;;;;;;;;23.02;48.48;100573.50;5101635;28;19928;-60
2021/08/06 06:48:33;;;;;;;;;;;;;;;23.07;48.68;100583.06;5107195;28;19924;-60
2021/08/06 06:51:06;;;;;;;;;;;;;;;23.07;48.75;100583.06;5117806;27;19928;-60
2021/08/06 06:53:34;;;;;;;;;;;;;;;23.08;48.95;100574.84;5112571;28;20010;-60
2021/08/06 06:56:02;;;;;;;;;;;;;;;23.09;48.86;100576.56;5102904;28;19932;-60
2021/08/06 06:58:31;;;;;;;;;;;;;;;20.34;53.92;100586.72;5102705;28;19931;-60
2021/08/06 07:01:01;;;;;;;;;;;;;;;20.05;51.96;100577.09;5112428;27;20019;-59
2021/08/06 07:03:29;;;;;;;;;;;;;;;20.57;52.63;100577.03;5121240;28;20433;-60
2021/08/06 07:05:57;;;;;;;;;;;;;;;20.67;52.17;100582.59;5112365;28;19969;-59
2021/08/06 07:08:26;;;;;;;;;;;;;;;20.95;48.38;100570.72;5112788;28;19975;-59
2021/08/06 07:10:54;;;;;;;;;;;;;;;20.96;46.85;100571.56;5108669;28;19931;-60
2021/08/06 07:13:23;;;;;;;;;;;;;;;20.88;45.61;100567.63;5113108;28;19927;-59
2021/08/06 07:15:52;;;;;;;;;;;;;;;20.70;45.33;100568.97;5115573;28;19985;-60
2021/08/06 07:18:21;;;;;;;;;;;;;;;20.79;47.05;100573.66;5110530;28;19977;-58
2021/08/06 07:20:49;;;;;;;;;;;;;;;20.96;47.82;100571.56;5115869;28;19930;-59
2021/08/06 07:23:18;;;;;;;;;;;;;;;20.96;47.89;100569.75;5105542;28;19935;-58
2021/08/06 07:25:46;;;;;;;;;;;;;;;20.96;48.17;100568.88;5101885;28;19934;-62
2021/08/06 07:28:14;;;;;;;;;;;;;;;20.89;48.71;100571.16;5107502;28;19924;-61
2021/08/06 07:30:42;;;;;;;;;;;;;;;20.88;48.51;100575.69;5117026;27;19928;-62
2021/08/06 07:33:10;;;;;;;;;;;;;;;20.88;46.84;100575.69;5104584;28;19950;-62
2021/08/06 07:35:39;;;;;;;;;;;;;;;20.61;46.27;100575.00;5107229;28;19932;-63
2021/08/06 07:38:07;;;;;;;;;;;;;;;20.33;45.83;100580.50;5113756;28;19927;-62
2021/08/06 07:40:37;;;;;;;;;;;;;;;20.26;45.09;100576.53;5109946;28;20306;-63
2021/08/06 07:43:05;;;;;;;;;;;;;;;20.44;47.18;100573.50;5105232;28;20335;-62
2021/08/06 07:45:33;;;;;;;;;;;;;;;20.49;47.76;100582.09;5107678;28;19927;-63
2021/08/06 07:48:02;;;;;;;;;;;;;;;20.53;47.29;100573.69;5109576;28;19968;-62
2021/08/06 07:50:33;;;;;;;;;;;;;;;20.55;46.73;100576.25;5101877;28;20080;-62
2021/08/06 07:53:03;;;;;;;;;;;;;;;20.40;45.79;100576.41;5106618;28;19951;-62
2021/08/06 07:55:31;;;;;;;;;;;;;;;20.40;44.24;100580.94;5136350;27;19931;-62
2021/08/06 07:57:59;;;;;;;;;;;;;;;20.37;44.52;100584.69;5109404;28;19932;-60
2021/08/06 08:00:28;;;;;;;;;;;;;;;20.51;44.24;100577.47;5102470;28;19934;-63
2021/08/06 08:02:57;;;;;;;;;;;;;;;20.43;46.39;100578.00;5126610;27;19924;-63
2021/08/06 08:05:29;;;;;;;;;;;;;;;20.55;46.62;100574.47;5102373;28;19953;-63
2021/08/06 08:08:06;;;;;;;;;;;;;;;20.57;46.81;100582.41;5102637;27;19938;-63
2021/08/06 08:10:36;;;;;;;;;;;;;;;20.56;45.94;100575.31;5100609;28;19932;-62
2021/08/06 08:13:24;;;;;;;;;;;;;;;20.33;44.53;100580.50;5102608;28;19992;-63
2021/08/06 08:15:59;;;;;;;;;;;;;;;20.23;44.80;100579.44;5136107;27;20404;-62
2021/08/06 08:18:28;;;;;;;;;;;;;;;20.21;44.54;100573.31;5105411;27;19965;-63
2021/08/06 08:20:56;;;;;;;;;;;;;;;20.29;44.46;100583.50;5111161;28;19932;-63
2021/08/06 08:23:26;;;;;;;;;;;;;;;20.32;46.71;100578.78;5107036;27;20280;-63
2021/08/06 08:25:54;;;;;;;;;;;;;;;20.37;46.57;100573.94;5101178;28;19925;-62
2021/08/06 08:28:27;;;;;;;;;;;;;;;20.39;46.62;100574.72;5125985;27;19924;-63
2021/08/06 08:30:56;;;;;;;;;;;;;;;20.24;44.67;100573.94;5103717;28;20422;-63
2021/08/06 08:33:25;;;;;;;;;;;;;;;20.42;44.35;100570.94;5112876;28;19955;-63
2021/08/06 08:35:54;;;;;;;;;;;;;;;20.52;43.84;100573.81;5103643;28;20401;-63
2021/08/06 08:38:22;;;;;;;;;;;;;;;20.45;43.34;100568.03;5109970;28;19928;-62
2021/08/06 08:40:54;;;;;;;;;;;;;;;20.39;45.57;100572.03;5109993;28;20045;-66
2021/08/06 08:43:24;;;;;;;;;;;;;;;20.65;45.64;100571.09;5124392;27;19931;-61
2021/08/06 08:45:55;;;;;;;;;;;;;;;20.57;46.25;100577.03;5128864;27;19932;-62
2021/08/06 08:48:23;;;;;;;;;;;;;;;20.55;46.56;100569.09;5102147;28;19927;-63
2021/08/06 08:50:52;;;;;;;;;;;;;;;20.37;46.87;100565.88;5101309;28;19928;-63
2021/08/06 08:53:22;;;;;;;;;;;;;;;20.35;46.90;100566.97;5134493;27;19958;-63
2021/08/06 08:55:52;;;;;;;;;;;;;;;20.33;46.87;100567.06;5101282;28;19928;-62
2021/08/06 08:58:21;;;;;;;;;;;;;;;20.26;47.04;100570.31;5104993;28;19947;-63
2021/08/06 09:00:49;;;;;;;;;;;;;;;20.21;45.52;100573.31;5106041;28;19935;-63
2021/08/06 09:03:36;;;;;;;;;;;;;;;20.19;44.87;100567.19;5125081;27;19966;-63
2021/08/06 09:06:08;;;;;;;;;;;;;;;20.21;44.53;100566.13;5132038;27;20589;-63
2021/08/06 09:08:37;;;;;;;;;;;;;;;20.19;44.06;100565.34;5119188;27;19928;-63
2021/08/06 09:11:45;;;;;;;;;;;;;;;20.26;43.42;100559.56;5085976;28;20632;-63
2021/08/06 09:14:47;;;;;;;;;;;;;;;20.40;43.34;100567.50;5087163;28;19938;-63
2021/08/06 09:17:15;;;;;;;;;;;;;;;21.03;44.00;100551.31;5095742;28;19928;-63
2021/08/06 09:19:44;;;;;;;;;;;;;;;21.36;44.83;100544.38;5103737;28;20424;-63
2021/08/06 09:22:15;;;;;;;;;;;;;;;21.55;44.51;100546.53;5100058;28;19946;-62
2021/08/06 09:25:01;;;;;;;;;;;;;;;21.68;44.32;100547.31;5104662;28;19924;-62
2021/08/06 09:27:32;;;;;;;;;;;;;;;20.95;45.24;100548.34;5102913;28;19970;-62
2021/08/06 09:30:01;;;;;;;;;;;;;;;20.59;44.27;100555.41;5108088;28;19924;-63
2021/08/06 09:32:29;;;;;;;;;;;;;;;20.54;44.56;100547.69;5103055;28;19942;-63
2021/08/06 09:34:57;;;;;;;;;;;;;;;20.51;44.47;100550.59;5109365;27;20105;-63
2021/08/06 09:37:25;;;;;;;;;;;;;;;20.51;43.75;100550.59;5109301;27;19925;-62
2021/08/06 09:39:54;;;;;;;;;;;;;;;20.52;43.54;100549.63;5103913;28;19935;-63
2021/08/06 09:42:23;;;;;;;;;;;;;;;20.48;43.56;100548.13;5102828;27;19938;-62
2021/08/06 09:45:00;;;;;;;;;;;;;;;20.49;43.64;100550.72;5102792;27;20000;-62
2021/08/06 09:47:28;;;;;;;;;;;;;;;20.50;43.19;100543.50;5106690;27;19939;-62
2021/08/06 09:49:57;;;;;;;;;;;;;;;20.37;43.21;100551.59;5111133;27;19928;-62
2021/08/06 09:52:30;;;;;;;;;;;;;;;20.38;42.91;100540.75;5109869;27;19970;-62
2021/08/06 09:55:21;;;;;;;;;;;;;;;20.32;42.96;100549.25;5110420;28;19943;-62
2021/08/06 09:57:51;;;;;;;;;;;;;;;20.37;42.66;100557.81;5109969;28;20036;-62
2021/08/06 10:00:21;;;;;;;;;;;;;;;20.30;42.16;100544.94;5109296;27;19932;-62
2021/08/06 10:02:50;;;;;;;;;;;;;;;20.25;45.74;100553.34;5110899;27;20306;-63
2021/08/06 10:05:20;;;;;;;;;;;;;;;20.28;43.04;100549.59;5108039;27;19980;-62
2021/08/06 10:07:49;;;;;;;;;;;;;;;20.28;42.69;100558.47;5109744;28;19993;-62
2021/08/06 10:10:18;;;;;;;;;;;;;;;20.31;42.98;100552.03;5112171;28;19924;-62
2021/08/06 10:12:47;;;;;;;;;;;;;;;20.31;42.94;100552.88;5108825;28;19939;-62
2021/08/06 10:15:16;;;;;;;;;;;;;;;20.26;42.60;100548.81;5108274;28;19947;-63
2021/08/06 10:17:45;;;;;;;;;;;;;;;20.85;43.35;100540.09;5116318;27;20270;-63
2021/08/06 10:20:14;;;;;;;;;;;;;;;21.23;43.98;100529.19;5111023;27;20411;-62
2021/08/06 10:22:42;;;;;;;;;;;;;;;21.46;43.96;100529.25;5104454;28;19977;-62
2021/08/06 10:25:11;;;;;;;;;;;;;;;21.60;43.65;100536.25;5106141;28;19981;-62
2021/08/06 10:27:41;;;;;;;;;;;;;;;21.42;44.33;100535.84;5106364;27;19932;-62
2021/08/06 10:30:11;;;;;;;;;;;;;;;20.69;43.12;100525.09;5104943;27;19924;-62
2021/08/06 10:32:39;;;;;;;;;;;;;;;20.40;44.07;100529.88;5113145;27;19954;-62
2021/08/06 10:35:11;;;;;;;;;;;;;;;20.30;43.85;100534.19;5106978;27;19931;-62
2021/08/06 10:38:03;;;;;;;;;;;;;;;20.36;43.12;100531.09;5104048;27;19938;-62
2021/08/06 10:43:51;;;;;;;;;;;;;;;17.40;55.18;100534.16;5107501;27;19932;-62
2021/08/06 10:46:23;;;;;;;;;;;;;;;17.18;55.64;100526.53;5106706;28;20030;-62
2021/08/06 10:48:52;;;;;;;;;;;;;;;17.11;55.76;100524.31;5109005;28;19928;-62
2021/08/06 10:51:32;;;;;;;;;;;;;;;16.97;56.07;100525.97;5110277;27;19932;-62
2021/08/06 10:54:33;;;;;;;;;;;;;;;16.90;56.05;100525.47;5108358;27;19928;-61
2021/08/06 10:57:14;;;;;;;;;;;;;;;17.42;57.62;100526.88;5108626;27;20365;-61
2021/08/06 10:59:43;;;;;;;;;;;;;;;18.17;54.94;100525.09;5108408;27;19935;-61
2021/08/06 11:02:30;;;;;;;;;;;;;;;19.30;52.38;100528.56;5107429;27;19931;-62
2021/08/06 11:04:58;;;;;;;;;;;;;;;19.97;50.19;100527.56;5107707;27;19927;-63
2021/08/06 11:07:36;;;;;;;;;;;;;;;20.35;49.12;100524.81;5109973;27;19928;-62
2021/08/06 11:10:05;;;;;;;;;;;;;;;20.58;48.74;100525.00;5107164;28;19949;-62
2021/08/06 11:12:33;;;;;;;;;;;;;;;20.50;49.17;100520.19;5104889;28;19938;-62
2021/08/06 11:15:04;;;;;;;;;;;;;;;20.23;48.42;100520.34;5108729;28;21018;-62
2021/08/06 11:17:45;;;;;;;;;;;;;;;20.02;46.89;100523.59;5107671;28;20019;-62
2021/08/06 11:20:14;;;;;;;;;;;;;;;19.86;46.83;100522.97;5102305;28;19985;-63
2021/08/06 11:22:44;;;;;;;;;;;;;;;19.72;46.53;100515.84;5108762;27;19924;-62
2021/08/06 11:25:17;;;;;;;;;;;;;;;19.71;45.79;100520.34;5110449;27;20376;-62
2021/08/06 11:27:47;;;;;;;;;;;;;;;19.72;47.20;100515.84;5105737;27;19950;-62
2021/08/06 11:30:17;;;;;;;;;;;;;;;19.89;47.68;100509.31;5106252;27;19951;-63
2021/08/06 11:32:46;;;;;;;;;;;;;;;19.89;45.46;100509.31;5109737;27;19927;-63
2021/08/06 11:35:16;;;;;;;;;;;;;;;19.73;44.97;100517.56;5106825;27;19932;-62
2021/08/06 11:37:50;;;;;;;;;;;;;;;19.70;44.49;100505.22;5102289;28;20003;-62
2021/08/06 11:40:18;;;;;;;;;;;;;;;19.63;44.93;100509.28;5104016;28;19927;-64
2021/08/06 11:42:47;;;;;;;;;;;;;;;19.82;45.36;100497.31;5100136;28;19928;-64
2021/08/06 11:45:17;;;;;;;;;;;;;;;20.01;46.68;100507.59;5102805;28;19928;-63
2021/08/06 11:47:47;;;;;;;;;;;;;;;19.89;44.71;100499.44;5107322;28;20000;-64
2021/08/06 11:50:16;;;;;;;;;;;;;;;19.83;44.67;100480.22;5102900;28;21943;-64
2021/08/06 11:52:45;;;;;;;;;;;;;;;19.64;44.64;100492.22;5103640;28;19938;-63
2021/08/06 11:55:17;;;;;;;;;;;;;;;19.65;44.58;100490.41;5105379;28;19965;-63
2021/08/06 11:57:53;;;;;;;;;;;;;;;19.64;43.81;100486.84;5103225;28;19951;-63
2021/08/06 12:00:23;;;;;;;;;;;;;;;19.70;45.57;100486.44;5105660;28;19931;-64
2021/08/06 12:03:00;;;;;;;;;;;;;;;19.92;46.26;100484.94;5105878;28;19932;-64
2021/08/06 12:05:29;;;;;;;;;;;;;;;19.74;43.98;100482.56;5104095;28;19935;-63
2021/08/06 12:07:57;;;;;;;;;;;;;;;19.76;44.14;100471.72;5103634;28;20003;-63
2021/08/06 12:10:27;;;;;;;;;;;;;;;19.77;43.91;100467.22;5104096;28;20448;-63
2021/08/06 12:12:55;;;;;;;;;;;;;;;19.61;43.68;100473.66;5098523;28;19924;-63
2021/08/06 12:15:24;;;;;;;;;;;;;;;19.73;45.97;100469.25;5104755;28;19983;-63
2021/08/06 12:18:07;;;;;;;;;;;;;;;19.81;45.66;100479.47;5102909;28;19935;-63
2021/08/06 12:20:36;;;;;;;;;;;;;;;19.61;44.47;100476.34;5100139;28;19932;-63
2021/08/06 12:23:04;;;;;;;;;;;;;;;19.59;44.38;100470.22;5099791;28;19924;-63
2021/08/06 12:25:33;;;;;;;;;;;;;;;19.51;44.36;100462.69;5107182;28;19987;-63
2021/08/06 12:28:02;;;;;;;;;;;;;;;19.51;43.93;100464.53;5104021;28;19928;-63
2021/08/06 12:30:31;;;;;;;;;;;;;;;19.62;46.63;100472.72;5117124;28;19928;-63
2021/08/06 12:33:00;;;;;;;;;;;;;;;19.52;45.35;100482.34;5106695;28;20524;-63
2021/08/06 12:35:29;;;;;;;;;;;;;;;19.50;44.35;100492.31;5105955;28;19935;-63
2021/08/06 12:37:56;;;;;;;;;;;;;;;19.46;44.33;100485.44;5102900;28;19932;-62
2021/08/06 12:40:41;;;;;;;;;;;;;;;19.40;44.36;100484.91;5108179;28;19928;-63
2021/08/06 12:43:19;;;;;;;;;;;;;;;19.41;44.37;100488.47;5100602;28;20023;-62
2021/08/06 12:46:07;;;;;;;;;;;;;;;19.47;46.73;100503.28;5104911;28;19932;-63
2021/08/06 12:48:35;;;;;;;;;;;;;;;19.47;44.37;100503.28;5103963;28;20007;-63
2021/08/06 12:51:16;;;;;;;;;;;;;;;19.45;44.28;100503.38;5104565;28;19928;-63
2021/08/06 12:53:44;;;;;;;;;;;;;;;19.47;43.87;100504.13;5106454;28;20438;-62
2021/08/06 12:56:12;;;;;;;;;;;;;;;19.45;43.33;100513.22;5103747;28;20745;-63